Time,TemperatureF,DewpointF,PressureIn,WindDirection,WindDirectionDegrees,WindSpeedMPH,WindSpeedGustMPH,Humidity,HourlyPrecipIn,Conditions,Clouds,dailyrainin,SolarRadiationWatts/m^2,SoftwareType,DateUTC
2013-04-12 00:03:00,71.9,70.4,29.86,SSE,161,3.0,3.0,95,0.00,,,0.00,0,Wunderground v.1.15,2013-04-12 04:03:00,
2013-04-12 00:13:00,71.9,70.4,29.87,SSE,161,2.0,2.0,95,0.00,,,0.00,0,Wunderground v.1.15,2013-04-12 04:13:00,
2013-04-12 00:18:00,71.9,70.4,29.87,SSE,161,1.0,2.0,95,0.00,,,0.00,0,Wunderground v.1.15,2013-04-12 04:18:00,
2013-04-12 00:23:00,71.9,70.4,29.87,SSE,161,1.0,1.0,95,0.00,,,0.00,0,Wunderground v.1.15,2013-04-12 04:23:00,
2013-04-12 00:28:00,72.0,70.5,29.87,SSE,161,1.0,1.0,95,0.00,,,0.00,0,Wunderground v.1.15,2013-04-12 04:28:00,
2013-04-12 00:33:00,72.0,70.5,29.87,SSE,161,0.0,0.0,95,0.00,,,0.00,0,Wunderground v.1.15,2013-04-12 04:33:00,
2013-04-12 00:43:00,72.1,70.6,29.88,SSE,161,1.0,2.0,95,0.00,,,0.00,0,Wunderground v.1.15,2013-04-12 04:43:00,
2013-04-12 00:48:00,72.1,70.6,29.88,SSE,161,2.0,2.0,95,0.00,,,0.00,0,Wunderground v.1.15,2013-04-12 04:48:00,
2013-04-12 00:58:00,72.2,70.7,29.88,SSE,161,2.0,3.0,95,0.00,,,0.00,0,Wunderground v.1.15,2013-04-12 04:58:00,
2013-04-12 01:03:00,72.2,70.7,29.88,SSE,161,2.0,2.0,95,0.00,,,0.00,0,Wunderground v.1.15,2013-04-12 05:03:00,
2013-04-12 01:13:00,72.3,71.1,29.88,SSE,161,1.0,1.0,96,0.00,,,0.00,0,Wunderground v.1.15,2013-04-12 05:13:00,
2013-04-12 01:18:00,72.3,71.1,29.88,SSE,161,1.0,1.0,96,0.00,,,0.00,0,Wunderground v.1.15,2013-04-12 05:18:00,
2013-04-12 01:28:00,72.3,71.1,29.89,SSE,161,1.0,1.0,96,0.00,,,0.00,0,Wunderground v.1.15,2013-04-12 05:28:00,
2013-04-12 01:33:00,72.4,71.2,29.88,SSE,161,1.0,1.0,96,0.00,,,0.00,0,Wunderground v.1.15,2013-04-12 05:33:00,
2013-04-12 01:43:00,72.3,71.1,29.88,SSE,161,0.0,0.0,96,0.00,,,0.00,0,Wunderground v.1.15,2013-04-12 05:43:00,
2013-04-12 01:53:00,72.4,71.2,29.88,SSE,161,1.0,1.0,96,0.00,,,0.00,0,Wunderground v.1.15,2013-04-12 05:53:00,
2013-04-12 01:58:00,72.3,71.1,29.88,SSE,161,1.0,1.0,96,0.00,,,0.00,0,Wunderground v.1.15,2013-04-12 05:58:00,
2013-04-12 02:03:00,72.4,71.2,29.87,SSE,161,1.0,1.0,96,0.00,,,0.00,0,Wunderground v.1.15,2013-04-12 06:03:00,
2013-04-12 02:13:00,72.3,71.1,29.87,SSE,161,1.0,1.0,96,0.00,,,0.00,0,Wunderground v.1.15,2013-04-12 06:13:00,
2013-04-12 02:18:00,72.3,71.1,29.87,SSE,161,1.0,1.0,96,0.00,,,0.00,0,Wunderground v.1.15,2013-04-12 06:18:00,
2013-04-12 02:28:00,72.3,71.1,29.87,SSE,161,1.0,1.0,96,0.00,,,0.00,0,Wunderground v.1.15,2013-04-12 06:28:00,
2013-04-12 02:33:00,72.3,71.1,29.87,SSE,161,1.0,2.0,96,0.00,,,0.00,0,Wunderground v.1.15,2013-04-12 06:33:00,
2013-04-12 02:43:00,72.4,71.2,29.87,SSE,161,2.0,4.0,96,0.00,,,0.00,0,Wunderground v.1.15,2013-04-12 06:43:00,
2013-04-12 02:48:00,72.4,71.2,29.87,SSE,161,2.0,4.0,96,0.00,,,0.00,0,Wunderground v.1.15,2013-04-12 06:48:00,
2013-04-12 02:58:00,72.4,71.2,29.86,SSE,161,1.0,5.0,96,0.00,,,0.00,0,Wunderground v.1.15,2013-04-12 06:58:00,
2013-04-12 03:03:00,72.4,71.2,29.86,SSE,161,2.0,2.0,96,0.00,,,0.00,0,Wunderground v.1.15,2013-04-12 07:03:00,
2013-04-12 03:13:00,72.4,71.2,29.86,SSE,161,1.0,1.0,96,0.00,,,0.00,0,Wunderground v.1.15,2013-04-12 07:13:00,
2013-04-12 03:18:00,72.4,71.2,29.86,SSE,161,0.0,1.0,96,0.00,,,0.00,0,Wunderground v.1.15,2013-04-12 07:18:00,
2013-04-12 03:23:00,72.4,71.2,29.85,SSE,161,1.0,1.0,96,0.00,,,0.00,0,Wunderground v.1.15,2013-04-12 07:23:00,
2013-04-12 03:28:00,72.4,71.2,29.85,SSE,161,1.0,1.0,96,0.00,,,0.00,0,Wunderground v.1.15,2013-04-12 07:28:00,
2013-04-12 03:33:00,72.4,71.2,29.84,SSE,161,1.0,2.0,96,0.00,,,0.00,0,Wunderground v.1.15,2013-04-12 07:33:00,
2013-04-12 03:43:00,72.4,71.2,29.84,SSE,161,1.0,1.0,96,0.00,,,0.00,0,Wunderground v.1.15,2013-04-12 07:43:00,
2013-04-12 03:48:00,72.4,71.2,29.84,SSE,161,1.0,4.0,96,0.00,,,0.00,0,Wunderground v.1.15,2013-04-12 07:48:00,
2013-04-12 03:58:00,72.4,71.2,29.83,SSE,161,1.0,2.0,96,0.00,,,0.00,0,Wunderground v.1.15,2013-04-12 07:58:00,
2013-04-12 04:03:00,72.4,71.2,29.83,SSE,161,2.0,2.0,96,0.00,,,0.00,0,Wunderground v.1.15,2013-04-12 08:03:00,
2013-04-12 04:13:00,72.3,71.1,29.83,SSE,161,3.0,3.0,96,0.00,,,0.00,0,Wunderground v.1.15,2013-04-12 08:13:00,
2013-04-12 04:18:00,72.3,71.1,29.82,SSE,161,3.0,3.0,96,0.00,,,0.00,0,Wunderground v.1.15,2013-04-12 08:18:00,
2013-04-12 04:28:00,72.3,71.1,29.81,SSE,161,1.0,2.0,96,0.00,,,0.00,0,Wunderground v.1.15,2013-04-12 08:28:00,
2013-04-12 04:33:00,72.2,71.0,29.81,South,183,2.0,4.0,96,0.00,,,0.00,0,Wunderground v.1.15,2013-04-12 08:33:00,
2013-04-12 04:43:00,72.2,71.0,29.81,South,183,3.0,3.0,96,0.00,,,0.00,0,Wunderground v.1.15,2013-04-12 08:43:00,
2013-04-12 04:53:00,72.3,71.1,29.79,South,182,2.0,2.0,96,0.00,,,0.00,0,Wunderground v.1.15,2013-04-12 08:53:00,
2013-04-12 04:58:00,72.3,71.1,29.79,South,177,3.0,5.0,96,0.00,,,0.00,0,Wunderground v.1.15,2013-04-12 08:58:00,
2013-04-12 05:03:00,72.4,71.2,29.80,South,187,5.0,5.0,96,0.00,,,0.00,0,Wunderground v.1.15,2013-04-12 09:03:00,
2013-04-12 05:13:00,72.5,71.3,29.79,SSW,194,4.0,5.0,96,0.00,,,0.00,0,Wunderground v.1.15,2013-04-12 09:13:00,
2013-04-12 05:18:00,72.6,71.4,29.79,South,190,4.0,11.0,96,0.00,,,0.00,0,Wunderground v.1.15,2013-04-12 09:18:00,
2013-04-12 05:23:00,72.6,71.4,29.78,South,186,5.0,5.0,96,0.00,,,0.00,0,Wunderground v.1.15,2013-04-12 09:23:00,
2013-04-12 05:33:00,72.7,71.5,29.78,SSW,199,6.0,6.0,96,0.00,,,0.00,0,Wunderground v.1.15,2013-04-12 09:33:00,
2013-04-12 05:38:00,72.8,71.6,29.78,SSW,205,5.0,6.0,96,0.00,,,0.00,0,Wunderground v.1.15,2013-04-12 09:38:00,
2013-04-12 05:48:00,72.8,71.3,29.78,SW,230,5.0,5.0,95,0.00,,,0.00,0,Wunderground v.1.15,2013-04-12 09:48:00,
2013-04-12 05:58:00,72.9,71.4,29.77,SSW,192,5.0,5.0,95,0.00,,,0.00,0,Wunderground v.1.15,2013-04-12 09:58:00,
2013-04-12 06:03:00,72.8,71.3,29.76,South,183,5.0,6.0,95,0.00,,,0.00,0,Wunderground v.1.15,2013-04-12 10:03:00,
2013-04-12 06:13:00,72.8,71.3,29.76,South,191,5.0,5.0,95,0.00,,,0.00,0,Wunderground v.1.15,2013-04-12 10:13:00,
2013-04-12 06:18:00,72.8,71.3,29.76,South,190,4.0,5.0,95,0.00,,,0.00,0,Wunderground v.1.15,2013-04-12 10:18:00,
2013-04-12 06:28:00,72.8,71.3,29.77,SSW,197,4.0,4.0,95,0.00,,,0.00,0,Wunderground v.1.15,2013-04-12 10:28:00,
2013-04-12 06:33:00,72.8,71.0,29.78,SSW,196,4.0,6.0,94,0.00,,,0.00,0,Wunderground v.1.15,2013-04-12 10:33:00,
2013-04-12 06:43:00,72.8,71.0,29.77,South,190,5.0,5.0,94,0.00,,,0.00,0,Wunderground v.1.15,2013-04-12 10:43:00,
2013-04-12 06:48:00,72.8,71.0,29.77,South,183,4.0,5.0,94,0.00,,,0.00,0,Wunderground v.1.15,2013-04-12 10:48:00,
2013-04-12 06:58:00,72.7,70.9,29.77,South,184,4.0,6.0,94,0.00,,,0.00,0,Wunderground v.1.15,2013-04-12 10:58:00,
2013-04-12 07:03:00,72.7,70.9,29.77,South,185,3.0,3.0,94,0.00,,,0.00,0,Wunderground v.1.15,2013-04-12 11:03:00,
2013-04-12 07:13:00,72.7,70.9,29.78,South,191,4.0,4.0,94,0.00,,,0.00,0,Wunderground v.1.15,2013-04-12 11:13:00,
2013-04-12 07:18:00,72.7,70.9,29.79,South,190,4.0,4.0,94,0.00,,,0.00,7,Wunderground v.1.15,2013-04-12 11:18:00,
2013-04-12 07:23:00,72.8,71.0,29.79,South,191,4.0,6.0,94,0.00,,,0.00,9,Wunderground v.1.15,2013-04-12 11:23:00,
2013-04-12 07:33:00,72.8,71.0,29.79,SSW,200,3.0,3.0,94,0.00,,,0.00,26,Wunderground v.1.15,2013-04-12 11:33:00,
2013-04-12 07:43:00,73.0,71.2,29.80,SSW,199,3.0,3.0,94,0.00,,,0.00,39,Wunderground v.1.15,2013-04-12 11:43:00,
2013-04-12 07:48:00,73.0,71.2,29.80,SSW,198,3.0,3.0,94,0.00,,,0.00,23,Wunderground v.1.15,2013-04-12 11:48:00,
2013-04-12 07:58:00,73.1,71.3,29.81,SSW,193,4.0,4.0,94,0.00,,,0.00,33,Wunderground v.1.15,2013-04-12 11:58:00,
2013-04-12 08:03:00,73.2,71.4,29.80,SSW,194,3.0,3.0,94,0.00,,,0.00,47,Wunderground v.1.15,2013-04-12 12:03:00,
2013-04-12 08:13:00,73.3,71.2,29.81,SSW,193,3.0,6.0,93,0.00,,,0.00,53,Wunderground v.1.15,2013-04-12 12:13:00,
2013-04-12 08:18:00,73.4,71.3,29.81,SSW,192,4.0,6.0,93,0.00,,,0.00,42,Wunderground v.1.15,2013-04-12 12:18:00,
2013-04-12 08:28:00,73.6,71.4,29.81,SSW,193,3.0,4.0,93,0.00,,,0.00,47,Wunderground v.1.15,2013-04-12 12:28:00,
2013-04-12 08:33:00,73.7,71.5,29.81,South,188,4.0,6.0,93,0.00,,,0.00,46,Wunderground v.1.15,2013-04-12 12:33:00,
2013-04-12 08:43:00,73.9,71.7,29.81,South,187,2.0,2.0,93,0.00,,,0.00,111,Wunderground v.1.15,2013-04-12 12:43:00,
2013-04-12 08:48:00,74.0,71.8,29.81,South,186,2.0,5.0,93,0.00,,,0.00,74,Wunderground v.1.15,2013-04-12 12:48:00,
2013-04-12 08:58:00,74.2,72.0,29.82,SSW,201,4.0,8.0,93,0.00,,,0.00,67,Wunderground v.1.15,2013-04-12 12:58:00,
2013-04-12 09:03:00,74.3,71.8,29.82,SSW,208,5.0,6.0,92,0.00,,,0.00,100,Wunderground v.1.15,2013-04-12 13:03:00,
2013-04-12 09:13:00,74.6,72.1,29.82,SSW,199,6.0,6.0,92,0.00,,,0.00,118,Wunderground v.1.15,2013-04-12 13:13:00,
2013-04-12 09:18:00,74.9,72.4,29.81,SSW,198,5.0,6.0,92,0.00,,,0.00,204,Wunderground v.1.15,2013-04-12 13:18:00,
2013-04-12 09:28:00,75.4,72.6,29.81,South,189,5.0,5.0,91,0.00,,,0.00,206,Wunderground v.1.15,2013-04-12 13:28:00,
2013-04-12 09:33:00,75.7,72.9,29.81,South,191,5.0,5.0,91,0.00,,,0.00,202,Wunderground v.1.15,2013-04-12 13:33:00,
2013-04-12 09:43:00,76.2,73.1,29.82,South,191,3.0,3.0,90,0.00,,,0.00,176,Wunderground v.1.15,2013-04-12 13:43:00,
2013-04-12 09:48:00,76.4,72.9,29.82,SSW,195,4.0,4.0,89,0.00,,,0.00,171,Wunderground v.1.15,2013-04-12 13:48:00,
2013-04-12 09:58:00,76.9,73.1,29.82,SSW,202,4.0,7.0,88,0.00,,,0.00,271,Wunderground v.1.15,2013-04-12 13:58:00,
2013-04-12 10:03:00,77.2,73.0,29.82,South,191,5.0,5.0,87,0.00,,,0.00,255,Wunderground v.1.15,2013-04-12 14:03:00,
2013-04-12 10:13:00,77.7,73.2,29.82,SSW,194,6.0,7.0,86,0.00,,,0.00,272,Wunderground v.1.15,2013-04-12 14:13:00,
2013-04-12 10:18:00,78.0,73.1,29.82,SSW,206,6.0,7.0,85,0.00,,,0.00,288,Wunderground v.1.15,2013-04-12 14:18:00,
2013-04-12 10:23:00,78.3,73.4,29.82,SSW,197,5.0,5.0,85,0.00,,,0.00,220,Wunderground v.1.15,2013-04-12 14:23:00,
2013-04-12 10:33:00,79.4,73.8,29.81,SSW,207,6.0,7.0,83,0.00,,,0.00,724,Wunderground v.1.15,2013-04-12 14:33:00,
2013-04-12 10:43:00,80.6,73.9,29.82,SSW,195,6.0,6.0,80,0.00,,,0.00,185,Wunderground v.1.15,2013-04-12 14:43:00,
2013-04-12 10:48:00,80.9,73.8,29.82,SSW,211,5.0,6.0,79,0.00,,,0.00,206,Wunderground v.1.15,2013-04-12 14:48:00,
2013-04-12 10:58:00,81.2,73.3,29.82,SW,220,5.0,6.0,77,0.00,,,0.00,302,Wunderground v.1.15,2013-04-12 14:58:00,
2013-04-12 11:03:00,81.4,73.1,29.82,South,182,6.0,6.0,76,0.00,,,0.00,165,Wunderground v.1.15,2013-04-12 15:03:00,
2013-04-12 11:13:00,81.3,73.4,29.83,SW,236,6.0,6.0,77,0.00,,,0.00,195,Wunderground v.1.15,2013-04-12 15:13:00,
2013-04-12 11:18:00,81.7,73.4,29.83,WSW,246,6.0,6.0,76,0.00,,,0.00,896,Wunderground v.1.15,2013-04-12 15:18:00,
2013-04-12 11:28:00,82.9,72.9,29.84,SSW,205,8.0,10.0,72,0.00,,,0.00,900,Wunderground v.1.15,2013-04-12 15:28:00,
2013-04-12 11:33:00,83.7,73.3,29.84,SW,216,8.0,8.0,71,0.00,,,0.00,974,Wunderground v.1.15,2013-04-12 15:33:00,
2013-04-12 11:43:00,84.7,73.4,29.83,SW,223,6.0,11.0,69,0.00,,,0.00,870,Wunderground v.1.15,2013-04-12 15:43:00,
2013-04-12 11:48:00,85.3,73.5,29.83,SSW,210,6.0,11.0,68,0.00,,,0.00,251,Wunderground v.1.15,2013-04-12 15:48:00,
2013-04-12 11:58:00,85.3,72.6,29.83,SSW,194,8.0,8.0,66,0.00,,,0.00,712,Wunderground v.1.15,2013-04-12 15:58:00,
2013-04-12 12:03:00,85.5,72.8,29.83,SW,224,6.0,6.0,66,0.00,,,0.00,410,Wunderground v.1.15,2013-04-12 16:03:00,
2013-04-12 12:13:00,86.3,72.7,29.83,SSW,201,7.0,7.0,64,0.00,,,0.00,962,Wunderground v.1.15,2013-04-12 16:13:00,
2013-04-12 12:18:00,86.3,72.2,29.83,West,267,7.0,9.0,63,0.00,,,0.00,420,Wunderground v.1.15,2013-04-12 16:18:00,
2013-04-12 12:28:00,86.2,72.1,29.83,South,189,7.0,8.0,63,0.00,,,0.00,784,Wunderground v.1.15,2013-04-12 16:28:00,
2013-04-12 12:33:00,86.7,72.6,29.82,SW,216,5.0,5.0,63,0.00,,,0.00,900,Wunderground v.1.15,2013-04-12 16:33:00,
2013-04-12 12:38:00,87.4,73.3,29.82,SW,222,4.0,7.0,63,0.00,,,0.00,842,Wunderground v.1.15,2013-04-12 16:38:00,
2013-04-12 12:48:00,86.8,71.7,29.82,SSW,194,7.0,8.0,61,0.00,,,0.00,643,Wunderground v.1.15,2013-04-12 16:48:00,
2013-04-12 12:53:00,86.7,72.1,29.82,SSW,209,6.0,6.0,62,0.00,,,0.00,555,Wunderground v.1.15,2013-04-12 16:53:00,
2013-04-12 12:58:00,86.7,72.1,29.82,SW,228,5.0,14.0,62,0.00,,,0.00,721,Wunderground v.1.15,2013-04-12 16:58:00,
2013-04-12 13:03:00,86.8,72.2,29.82,SSW,202,6.0,7.0,62,0.00,,,0.00,921,Wunderground v.1.15,2013-04-12 17:03:00,
2013-04-12 13:13:00,87.3,72.7,29.81,SSW,197,5.0,5.0,62,0.00,,,0.00,364,Wunderground v.1.15,2013-04-12 17:13:00,
2013-04-12 13:18:00,87.3,72.7,29.81,WSW,238,3.0,6.0,62,0.00,,,0.00,782,Wunderground v.1.15,2013-04-12 17:18:00,
2013-04-12 13:23:00,87.4,72.3,29.81,SSW,192,3.0,7.0,61,0.00,,,0.00,401,Wunderground v.1.15,2013-04-12 17:23:00,
2013-04-12 13:28:00,87.1,72.5,29.81,SSW,205,3.0,7.0,62,0.00,,,0.00,343,Wunderground v.1.15,2013-04-12 17:28:00,
2013-04-12 13:33:00,87.3,72.7,29.81,WSW,249,3.0,3.0,62,0.00,,,0.00,802,Wunderground v.1.15,2013-04-12 17:33:00,
2013-04-12 13:48:00,88.4,71.2,29.81,South,170,5.0,5.0,57,0.00,,,0.00,868,Wunderground v.1.15,2013-04-12 17:48:00,
2013-04-12 14:03:00,88.6,70.4,29.81,SSW,203,7.0,7.0,55,0.00,,,0.00,788,Wunderground v.1.15,2013-04-12 18:03:00,
2013-04-12 14:13:00,88.8,70.0,29.81,SSW,201,7.0,7.0,54,0.00,,,0.00,510,Wunderground v.1.15,2013-04-12 18:13:00,
2013-04-12 15:28:00,88.5,69.2,29.80,SSW,200,5.0,6.0,53,0.00,,,0.00,629,Wunderground v.1.15,2013-04-12 19:28:00,
2013-04-12 15:33:00,88.2,68.4,29.79,SSW,205,6.0,7.0,52,0.00,,,0.00,350,Wunderground v.1.15,2013-04-12 19:33:00,
2013-04-12 15:38:00,87.9,68.6,29.79,SSW,202,5.0,7.0,53,0.00,,,0.00,306,Wunderground v.1.15,2013-04-12 19:38:00,
2013-04-12 15:43:00,87.3,68.1,29.79,SW,236,5.0,7.0,53,0.00,,,0.00,246,Wunderground v.1.15,2013-04-12 19:43:00,
2013-04-12 15:48:00,87.0,68.3,29.79,SSW,199,5.0,7.0,54,0.00,,,0.00,538,Wunderground v.1.15,2013-04-12 19:48:00,
2013-04-12 15:53:00,86.9,68.3,29.79,SSW,193,5.0,7.0,54,0.00,,,0.00,547,Wunderground v.1.15,2013-04-12 19:53:00,
2013-04-12 15:58:00,86.9,68.3,29.79,West,275,5.0,7.0,54,0.00,,,0.00,489,Wunderground v.1.15,2013-04-12 19:58:00,
2013-04-12 16:03:00,86.9,68.8,29.79,SSW,197,4.0,5.0,55,0.00,,,0.00,338,Wunderground v.1.15,2013-04-12 20:03:00,
2013-04-12 16:13:00,86.5,69.5,29.79,South,179,6.0,6.0,57,0.00,,,0.00,385,Wunderground v.1.15,2013-04-12 20:13:00,
2013-04-12 16:18:00,86.4,68.8,29.78,WNW,285,5.0,9.0,56,0.00,,,0.00,411,Wunderground v.1.15,2013-04-12 20:18:00,
2013-04-12 16:23:00,86.2,69.2,29.79,South,189,6.0,7.0,57,0.00,,,0.00,376,Wunderground v.1.15,2013-04-12 20:23:00,
2013-04-12 16:33:00,85.7,68.7,29.79,WSW,243,6.0,6.0,57,0.00,,,0.00,352,Wunderground v.1.15,2013-04-12 20:33:00,
2013-04-12 16:43:00,85.3,69.3,29.79,SSW,211,6.0,6.0,59,0.00,,,0.00,311,Wunderground v.1.15,2013-04-12 20:43:00,
2013-04-12 16:48:00,85.1,69.2,29.79,SSE,164,6.0,6.0,59,0.00,,,0.00,223,Wunderground v.1.15,2013-04-12 20:48:00,
2013-04-12 16:58:00,84.5,69.1,29.79,South,182,5.0,6.0,60,0.00,,,0.00,234,Wunderground v.1.15,2013-04-12 20:58:00,
2013-04-12 17:03:00,84.0,68.6,29.79,South,176,5.0,7.0,60,0.00,,,0.00,292,Wunderground v.1.15,2013-04-12 21:03:00,
2013-04-12 17:13:00,83.6,69.2,29.80,West,274,5.0,5.0,62,0.00,,,0.00,302,Wunderground v.1.15,2013-04-12 21:13:00,
2013-04-12 17:18:00,83.6,69.2,29.80,South,181,6.0,9.0,62,0.00,,,0.00,271,Wunderground v.1.15,2013-04-12 21:18:00,
2013-04-12 17:28:00,83.0,68.2,29.80,WSW,243,7.0,17.0,61,0.00,,,0.00,246,Wunderground v.1.15,2013-04-12 21:28:00,
2013-04-12 17:33:00,82.9,68.1,29.81,SW,232,7.0,8.0,61,0.00,,,0.00,241,Wunderground v.1.15,2013-04-12 21:33:00,
2013-04-12 17:43:00,82.5,67.7,29.81,SSW,208,8.0,8.0,61,0.00,,,0.00,162,Wunderground v.1.15,2013-04-12 21:43:00,
2013-04-12 17:48:00,82.2,68.3,29.81,South,186,8.0,8.0,63,0.00,,,0.00,163,Wunderground v.1.15,2013-04-12 21:48:00,
2013-04-12 17:58:00,82.0,68.6,29.81,WSW,237,3.0,7.0,64,0.00,,,0.00,58,Wunderground v.1.15,2013-04-12 21:58:00,
2013-04-12 18:03:00,81.6,68.7,29.81,West,262,4.0,4.0,65,0.00,,,0.00,134,Wunderground v.1.15,2013-04-12 22:03:00,
2013-04-12 18:13:00,81.1,68.7,29.82,West,277,6.0,6.0,66,0.00,,,0.00,155,Wunderground v.1.15,2013-04-12 22:13:00,
2013-04-12 18:18:00,81.0,68.6,29.82,WSW,255,5.0,6.0,66,0.00,,,0.00,162,Wunderground v.1.15,2013-04-12 22:18:00,
2013-04-12 18:28:00,80.7,68.3,29.82,West,270,4.0,10.0,66,0.00,,,0.00,127,Wunderground v.1.15,2013-04-12 22:28:00,
2013-04-12 18:33:00,80.5,67.6,29.82,WSW,249,4.0,6.0,65,0.00,,,0.00,111,Wunderground v.1.15,2013-04-12 22:33:00,
2013-04-12 18:43:00,80.1,67.3,29.82,WSW,244,4.0,4.0,65,0.00,,,0.00,83,Wunderground v.1.15,2013-04-12 22:43:00,
2013-04-12 18:48:00,79.9,67.1,29.83,SW,234,3.0,4.0,65,0.00,,,0.00,76,Wunderground v.1.15,2013-04-12 22:48:00,
2013-04-12 18:58:00,79.5,66.7,29.83,SW,234,3.0,9.0,65,0.00,,,0.00,63,Wunderground v.1.15,2013-04-12 22:58:00,
2013-04-12 19:03:00,79.3,67.0,29.83,West,264,2.0,2.0,66,0.00,,,0.00,51,Wunderground v.1.15,2013-04-12 23:03:00,
2013-04-12 19:13:00,78.9,67.0,29.83,SW,220,3.0,3.0,67,0.00,,,0.00,35,Wunderground v.1.15,2013-04-12 23:13:00,
2013-04-12 19:18:00,78.7,66.8,29.83,WSW,240,2.0,3.0,67,0.00,,,0.00,30,Wunderground v.1.15,2013-04-12 23:18:00,
2013-04-12 19:28:00,78.5,67.1,29.83,WSW,240,0.0,1.0,68,0.00,,,0.00,16,Wunderground v.1.15,2013-04-12 23:28:00,
2013-04-12 19:33:00,78.3,67.3,29.83,WSW,244,1.0,1.0,69,0.00,,,0.00,11,Wunderground v.1.15,2013-04-12 23:33:00,
2013-04-12 19:43:00,77.9,66.9,29.83,WSW,244,0.0,0.0,69,0.00,,,0.00,0,Wunderground v.1.15,2013-04-12 23:43:00,
2013-04-12 19:48:00,77.7,67.1,29.83,WSW,244,1.0,1.0,70,0.00,,,0.00,0,Wunderground v.1.15,2013-04-12 23:48:00,
2013-04-12 19:58:00,77.3,67.2,29.84,SW,231,0.0,1.0,71,0.00,,,0.00,0,Wunderground v.1.15,2013-04-12 23:58:00,
2013-04-12 20:03:00,77.2,67.1,29.84,SW,231,0.0,0.0,71,0.00,,,0.00,0,Wunderground v.1.15,2013-04-13 00:03:00,
2013-04-12 20:13:00,76.9,67.2,29.84,SW,231,0.0,0.0,72,0.00,,,0.00,0,Wunderground v.1.15,2013-04-13 00:13:00,
2013-04-12 20:18:00,76.7,67.0,29.84,SW,230,0.0,0.0,72,0.00,,,0.00,0,Wunderground v.1.15,2013-04-13 00:18:00,
2013-04-12 20:28:00,76.4,67.5,29.85,SW,230,0.0,0.0,74,0.00,,,0.00,0,Wunderground v.1.15,2013-04-13 00:28:00,
2013-04-12 20:33:00,76.2,67.3,29.85,SW,230,0.0,0.0,74,0.00,,,0.00,0,Wunderground v.1.15,2013-04-13 00:33:00,
2013-04-12 20:43:00,75.8,66.9,29.86,SW,229,1.0,1.0,74,0.00,,,0.00,0,Wunderground v.1.15,2013-04-13 00:43:00,
2013-04-12 20:48:00,75.7,67.2,29.86,SW,227,0.0,1.0,75,0.00,,,0.00,0,Wunderground v.1.15,2013-04-13 00:48:00,
2013-04-12 20:53:00,75.6,67.1,29.86,SW,214,1.0,1.0,75,0.00,,,0.00,0,Wunderground v.1.15,2013-04-13 00:53:00,
2013-04-12 20:58:00,75.5,67.0,29.86,SW,214,1.0,1.0,75,0.00,,,0.00,0,Wunderground v.1.15,2013-04-13 00:58:00,
2013-04-12 21:03:00,75.5,67.0,29.87,SW,214,0.0,0.0,75,0.00,,,0.00,0,Wunderground v.1.15,2013-04-13 01:03:00,
2013-04-12 21:13:00,75.4,67.3,29.87,SW,214,0.0,0.0,76,0.00,,,0.00,0,Wunderground v.1.15,2013-04-13 01:13:00,
2013-04-12 21:18:00,75.4,67.3,29.88,SW,214,0.0,0.0,76,0.00,,,0.00,0,Wunderground v.1.15,2013-04-13 01:18:00,
2013-04-12 21:28:00,75.4,67.3,29.88,SW,214,0.0,0.0,76,0.00,,,0.00,0,Wunderground v.1.15,2013-04-13 01:28:00,
2013-04-12 21:38:00,75.4,67.3,29.88,SSW,207,0.0,2.0,76,0.00,,,0.00,0,Wunderground v.1.15,2013-04-13 01:38:00,
2013-04-12 21:48:00,75.3,66.8,29.89,SSW,212,2.0,2.0,75,0.00,,,0.00,0,Wunderground v.1.15,2013-04-13 01:48:00,
2013-04-12 21:53:00,75.3,66.8,29.89,SSW,213,1.0,1.0,75,0.00,,,0.00,0,Wunderground v.1.15,2013-04-13 01:53:00,
2013-04-12 22:03:00,75.4,66.9,29.88,SSW,213,0.0,0.0,75,0.00,,,0.00,0,Wunderground v.1.15,2013-04-13 02:03:00,
2013-04-12 22:13:00,75.3,67.2,29.88,SSW,213,0.0,0.0,76,0.00,,,0.00,0,Wunderground v.1.15,2013-04-13 02:13:00,
2013-04-12 22:23:00,75.3,67.2,29.88,SSW,213,0.0,2.0,76,0.00,,,0.00,0,Wunderground v.1.15,2013-04-13 02:23:00,
2013-04-12 22:28:00,75.2,67.1,29.88,SSW,213,0.0,2.0,76,0.00,,,0.00,0,Wunderground v.1.15,2013-04-13 02:28:00,
2013-04-12 22:33:00,75.2,67.1,29.88,SSW,213,0.0,0.0,76,0.00,,,0.00,0,Wunderground v.1.15,2013-04-13 02:33:00,
2013-04-12 22:43:00,75.0,67.3,29.88,SSW,213,0.0,0.0,77,0.00,,,0.00,0,Wunderground v.1.15,2013-04-13 02:43:00,
2013-04-12 22:53:00,74.9,67.2,29.88,SSW,213,0.0,0.0,77,0.00,,,0.00,0,Wunderground v.1.15,2013-04-13 02:53:00,
2013-04-12 22:58:00,74.8,67.1,29.88,SSW,213,0.0,0.0,77,0.00,,,0.00,0,Wunderground v.1.15,2013-04-13 02:58:00,
2013-04-12 23:03:00,74.8,67.1,29.88,SSW,213,0.0,0.0,77,0.00,,,0.00,0,Wunderground v.1.15,2013-04-13 03:03:00,
2013-04-12 23:13:00,74.7,67.4,29.88,SSW,213,0.0,3.0,78,0.00,,,0.00,0,Wunderground v.1.15,2013-04-13 03:13:00,
2013-04-12 23:18:00,74.7,67.4,29.88,SSW,213,1.0,3.0,78,0.00,,,0.00,0,Wunderground v.1.15,2013-04-13 03:18:00,
2013-04-12 23:28:00,74.6,67.3,29.87,SSW,213,0.0,1.0,78,0.00,,,0.00,0,Wunderground v.1.15,2013-04-13 03:28:00,
2013-04-12 23:33:00,74.6,67.3,29.88,SSW,213,0.0,0.0,78,0.00,,,0.00,0,Wunderground v.1.15,2013-04-13 03:33:00,
2013-04-12 23:43:00,74.5,67.6,29.88,SSW,213,1.0,2.0,79,0.00,,,0.00,0,Wunderground v.1.15,2013-04-13 03:43:00,
2013-04-12 23:53:00,74.4,67.5,29.88,SSW,213,1.0,1.0,79,0.00,,,0.00,0,Wunderground v.1.15,2013-04-13 03:53:00,
2013-04-12 23:58:00,74.4,67.5,29.89,SSW,212,1.0,1.0,79,0.00,,,0.00,0,Wunderground v.1.15,2013-04-13 03:58:00,